createdAt,value
2019-06-08T00:00:08.201Z,10.27
2019-06-08T00:02:36.815Z,9.77
2019-06-08T00:05:06.702Z,9.63
2019-06-08T00:07:35.408Z,10.60
2019-06-08T00:10:09.285Z,9.83
2019-06-08T00:12:37.833Z,9.93
2019-06-08T00:15:09.964Z,10.13
2019-06-08T00:17:39.350Z,11.60
2019-06-08T00:20:08.442Z,11.20
2019-06-08T00:22:37.028Z,11.03
2019-06-08T00:25:06.532Z,12.87
2019-06-08T00:27:35.138Z,12.10
2019-06-08T00:30:07.637Z,12.87
2019-06-08T00:32:36.180Z,12.00
2019-06-08T00:35:07.130Z,10.13
2019-06-08T00:37:35.633Z,11.23
2019-06-08T00:40:06.320Z,11.00
2019-06-08T00:42:34.945Z,11.53
2019-06-08T00:45:05.279Z,10.50
2019-06-08T00:47:47.110Z,11.70
2019-06-08T00:50:05.936Z,10.47
2019-06-08T00:52:34.582Z,12.00
2019-06-08T00:55:03.692Z,13.10
2019-06-08T00:57:32.200Z,12.10
2019-06-08T01:00:09.690Z,13.33
2019-06-08T01:02:30.961Z,14.60
2019-06-08T01:04:59.440Z,13.27
2019-06-08T01:07:28.090Z,13.23
2019-06-08T01:09:56.701Z,12.50
2019-06-08T01:12:25.178Z,12.73
2019-06-08T01:14:53.669Z,14.03
2019-06-08T01:17:23.009Z,13.03
2019-06-08T01:19:51.593Z,12.87
2019-06-08T01:22:21.486Z,11.73
2019-06-08T01:24:50.126Z,15.77
2019-06-08T01:27:19.934Z,14.43
2019-06-08T01:29:48.658Z,14.60
2019-06-08T01:32:17.134Z,13.60
2019-06-08T01:34:45.829Z,13.70
2019-06-08T01:37:14.446Z,15.37
2019-06-08T01:39:43.035Z,13.97
2019-06-08T01:42:11.579Z,13.67
2019-06-08T01:44:40.126Z,17.57
2019-06-08T01:47:08.760Z,17.30
2019-06-08T01:49:37.306Z,15.00
2019-06-08T01:52:05.918Z,16.70
2019-06-08T01:54:34.426Z,16.33
2019-06-08T01:57:09.124Z,19.70
2019-06-08T01:59:37.809Z,21.13
2019-06-08T02:02:06.421Z,18.37
2019-06-08T02:04:35.054Z,19.27
2019-06-08T02:07:03.664Z,18.80
2019-06-08T02:09:32.748Z,18.40
2019-06-08T02:12:01.493Z,23.10
2019-06-08T02:14:31.181Z,19.60
2019-06-08T02:16:59.864Z,19.67
2019-06-08T02:19:28.436Z,22.63
2019-06-08T02:21:57.121Z,21.27
2019-06-08T02:24:27.178Z,19.50
2019-06-08T02:26:55.795Z,21.33
2019-06-08T02:29:24.408Z,19.50
2019-06-08T02:31:52.954Z,19.33
2019-06-08T02:34:21.538Z,19.10
2019-06-08T02:36:50.081Z,19.30
2019-06-08T02:39:18.626Z,18.83
2019-06-08T02:41:47.275Z,20.27
2019-06-08T02:44:15.833Z,16.30
2019-06-08T02:46:44.517Z,18.10
2019-06-08T02:49:13.226Z,22.10
2019-06-08T02:51:42.640Z,21.37
2019-06-08T02:54:12.257Z,20.27
2019-06-08T02:56:43.810Z,18.30
2019-06-08T02:59:14.830Z,20.30
2019-06-08T03:01:45.142Z,21.33
2019-06-08T03:04:16.188Z,23.23
2019-06-08T03:06:46.762Z,25.60
2019-06-08T03:09:17.044Z,25.50
2019-06-08T03:11:48.496Z,25.90
2019-06-08T03:14:19.718Z,26.73
2019-06-08T03:16:48.290Z,26.20
2019-06-08T03:19:22.196Z,25.97
2019-06-08T03:21:46.704Z,24.07
2019-06-08T03:24:15.295Z,25.13
2019-06-08T03:26:44.257Z,24.27
2019-06-08T03:29:12.929Z,26.87
2019-06-08T03:31:51.602Z,30.37
2019-06-08T03:34:11.862Z,31.33
2019-06-08T03:36:51.183Z,29.80
2019-06-08T03:39:10.838Z,31.07
2019-06-08T03:41:40.421Z,31.30
2019-06-08T03:44:09.637Z,29.17
2019-06-08T03:46:38.862Z,28.77
2019-06-08T03:49:07.877Z,29.20
2019-06-08T03:51:40.264Z,28.97
2019-06-08T03:54:06.573Z,31.40
2019-06-08T03:56:35.788Z,30.43
2019-06-08T03:59:05.283Z,30.90
2019-06-08T04:01:33.830Z,29.03
2019-06-08T04:04:02.448Z,29.73
2019-06-08T04:06:31.034Z,28.60
2019-06-08T04:08:59.590Z,29.70
2019-06-08T04:11:28.141Z,27.37
2019-06-08T04:13:56.728Z,27.93
2019-06-08T04:16:25.277Z,29.30
2019-06-08T04:18:53.822Z,30.40
2019-06-08T04:21:22.323Z,30.50
2019-06-08T04:23:50.928Z,29.77
2019-06-08T04:26:19.521Z,28.43
2019-06-08T04:28:49.665Z,29.50
2019-06-08T04:31:18.366Z,29.07
2019-06-08T04:33:46.801Z,28.73
2019-06-08T04:36:15.523Z,27.93
2019-06-08T04:38:45.735Z,28.77
2019-06-08T04:41:14.263Z,26.10
2019-06-08T04:43:43.421Z,25.73
2019-06-08T04:46:13.129Z,25.87
2019-06-08T04:48:43.146Z,26.30
2019-06-08T04:51:11.958Z,24.80
2019-06-08T04:53:40.887Z,26.77
2019-06-08T04:56:10.164Z,25.75
2019-06-08T04:58:39.899Z,24.37
2019-06-08T05:01:09.005Z,25.23
2019-06-08T05:03:39.100Z,25.97
2019-06-08T05:06:08.010Z,25.85
2019-06-08T05:08:36.484Z,26.35
2019-06-08T05:11:05.029Z,26.07
2019-06-08T05:13:33.249Z,24.77
2019-06-08T05:16:01.394Z,26.70
2019-06-08T05:18:30.014Z,26.57
2019-06-08T05:20:58.594Z,26.45
2019-06-08T05:23:26.816Z,25.55
2019-06-08T05:25:55.094Z,25.23
2019-06-08T05:28:23.757Z,24.12
2019-06-08T05:30:52.311Z,24.35
2019-06-08T05:33:20.928Z,24.72
2019-06-08T05:35:49.801Z,24.00
2019-06-08T05:38:18.358Z,24.72
2019-06-08T05:40:47.711Z,24.87
2019-06-08T05:43:16.513Z,23.40
2019-06-08T05:45:45.721Z,24.50
2019-06-08T05:48:14.393Z,23.18
2019-06-08T05:50:56.842Z,23.10
2019-06-08T05:53:13.800Z,23.30
2019-06-08T05:55:43.813Z,23.95
2019-06-08T05:58:12.468Z,22.60
2019-06-08T06:00:42.067Z,23.15
2019-06-08T06:03:10.785Z,23.12
2019-06-08T06:05:40.182Z,22.10
2019-06-08T06:08:18.446Z,22.42
2019-06-08T06:10:39.083Z,21.75
2019-06-08T06:13:07.685Z,21.42
2019-06-08T06:15:36.413Z,20.30
2019-06-08T06:18:05.111Z,22.07
2019-06-08T06:20:33.335Z,20.32
2019-06-08T06:23:01.915Z,21.65
2019-06-08T06:25:30.553Z,19.50
2019-06-08T06:27:58.841Z,22.22
2019-06-08T06:30:27.493Z,21.48
2019-06-08T06:32:56.040Z,21.12
2019-06-08T06:35:24.727Z,23.22
2019-06-08T06:37:53.369Z,21.85
2019-06-08T06:40:21.923Z,21.37
2019-06-08T06:42:50.466Z,22.67
2019-06-08T06:45:19.138Z,21.15
2019-06-08T06:47:48.451Z,22.25
2019-06-08T06:50:17.480Z,22.55
2019-06-08T06:52:46.660Z,22.87
2019-06-08T06:55:15.582Z,22.30
2019-06-08T06:57:45.083Z,21.27
2019-06-08T07:00:15.977Z,21.60
2019-06-08T07:02:45.667Z,21.30
2019-06-08T07:05:14.666Z,20.77
2019-06-08T07:07:44.134Z,20.72
2019-06-08T07:10:13.088Z,21.50
2019-06-08T07:12:41.721Z,20.68
2019-06-08T07:15:10.649Z,20.50
2019-06-08T07:17:39.209Z,20.52
2019-06-08T07:20:09.957Z,21.80
2019-06-08T07:22:38.472Z,20.10
2019-06-08T07:25:07.157Z,20.62
2019-06-08T07:27:35.748Z,20.30
2019-06-08T07:30:05.936Z,19.52
2019-06-08T07:32:34.528Z,19.98
2019-06-08T07:35:03.926Z,19.82
2019-06-08T07:37:32.777Z,18.92
2019-06-08T07:40:01.550Z,19.25
2019-06-08T07:42:30.068Z,19.10
2019-06-08T07:45:00.227Z,18.12
2019-06-08T07:47:29.080Z,18.27
2019-06-08T07:49:57.625Z,18.75
2019-06-08T07:52:26.185Z,18.10
2019-06-08T07:54:54.821Z,15.68
2019-06-08T07:57:23.433Z,17.12
2019-06-08T07:59:53.331Z,16.35
2019-06-08T08:02:22.508Z,14.85
2019-06-08T08:04:52.412Z,15.32
2019-06-08T08:07:21.145Z,13.90
2019-06-08T08:09:50.577Z,12.90
2019-06-08T08:12:19.173Z,12.13
2019-06-08T08:14:48.735Z,11.30
2019-06-08T08:17:17.398Z,10.35
2019-06-08T08:19:45.941Z,10.45
2019-06-08T08:22:25.023Z,9.80
2019-06-08T08:24:44.733Z,9.13
2019-06-08T08:27:13.356Z,8.33
2019-06-08T08:29:41.971Z,8.35
2019-06-08T08:32:10.609Z,7.37
2019-06-08T08:34:39.294Z,7.40
2019-06-08T08:37:09.611Z,7.17
2019-06-08T08:39:38.246Z,6.37
2019-06-08T08:42:08.472Z,5.83
2019-06-08T08:44:38.052Z,5.40
2019-06-08T08:47:07.667Z,4.47
2019-06-08T08:49:37.999Z,4.67
2019-06-08T08:52:11.238Z,4.83
2019-06-08T08:54:37.691Z,5.10
2019-06-08T08:57:08.396Z,4.00
2019-06-08T08:59:38.147Z,2.90
2019-06-08T09:02:11.048Z,2.72
2019-06-08T09:04:38.152Z,2.72
2019-06-08T09:07:10.334Z,2.98
2019-06-08T09:09:38.660Z,2.50
2019-06-08T09:12:08.358Z,2.22
2019-06-08T09:14:38.747Z,2.10
2019-06-08T09:17:08.591Z,2.15
2019-06-08T09:19:38.268Z,1.80
2019-06-08T09:22:08.614Z,2.00
2019-06-08T09:24:38.976Z,1.60
2019-06-08T09:27:08.184Z,1.62
2019-06-08T09:29:38.815Z,1.40
2019-06-08T09:32:08.224Z,1.42
2019-06-08T09:34:38.553Z,1.80
2019-06-08T09:37:08.281Z,2.05
2019-06-08T09:39:38.549Z,2.17
2019-06-08T09:42:08.987Z,1.77
2019-06-08T09:44:37.888Z,1.60
2019-06-08T09:47:12.142Z,1.40
2019-06-08T09:49:37.695Z,1.65
2019-06-08T09:52:08.575Z,1.62
2019-06-08T09:54:38.472Z,1.27
2019-06-08T09:57:09.136Z,1.00
2019-06-08T09:59:38.558Z,1.60
2019-06-08T10:02:12.411Z,1.02
2019-06-08T10:04:38.677Z,1.25
2019-06-08T10:07:08.842Z,1.72
2019-06-08T10:09:38.104Z,0.90
2019-06-08T10:12:09.697Z,1.15
2019-06-08T10:14:37.991Z,1.30
2019-06-08T10:17:08.985Z,1.17
2019-06-08T10:19:37.179Z,1.12
2019-06-08T10:22:08.384Z,1.05
2019-06-08T10:24:41.187Z,1.15
2019-06-08T10:27:08.631Z,0.80
2019-06-08T10:29:38.299Z,1.15
2019-06-08T10:32:08.932Z,0.95
2019-06-08T10:34:38.808Z,1.05
2019-06-08T10:37:12.754Z,0.90
2019-06-08T10:39:38.293Z,1.00
2019-06-08T10:42:09.796Z,1.10
2019-06-08T10:44:38.212Z,1.00
2019-06-08T10:47:09.998Z,1.32
2019-06-08T10:49:38.416Z,1.10
2019-06-08T10:52:10.633Z,0.78
2019-06-08T10:54:37.879Z,1.20
2019-06-08T10:57:07.727Z,1.15
2019-06-08T10:59:40.063Z,1.00
2019-06-08T11:02:13.287Z,1.57
2019-06-08T11:04:38.863Z,1.20
2019-06-08T11:07:13.204Z,1.45
2019-06-08T11:09:38.172Z,1.60
2019-06-08T11:12:11.145Z,1.15
2019-06-08T11:14:38.269Z,1.17
2019-06-08T11:17:09.960Z,1.10
2019-06-08T11:19:38.040Z,1.77
2019-06-08T11:22:12.165Z,1.00
2019-06-08T11:24:38.749Z,1.00
2019-06-08T11:27:10.586Z,0.90
2019-06-08T11:29:38.316Z,0.90
2019-06-08T11:32:10.890Z,1.20
2019-06-08T11:34:37.867Z,0.85
2019-06-08T11:37:09.856Z,1.00
2019-06-08T11:39:38.180Z,1.10
2019-06-08T11:42:09.795Z,1.45
2019-06-08T11:44:39.057Z,1.32
2019-06-08T11:47:12.297Z,1.00
2019-06-08T11:49:38.161Z,1.00
2019-06-08T11:52:06.959Z,0.90
2019-06-08T11:54:38.027Z,1.05
2019-06-08T11:57:08.351Z,1.05
2019-06-08T11:59:37.596Z,1.02
2019-06-08T12:02:09.039Z,1.42
2019-06-08T12:04:38.426Z,1.17
2019-06-08T12:07:09.123Z,1.00
2019-06-08T12:09:37.053Z,0.82
2019-06-08T12:12:09.026Z,0.90
2019-06-08T12:14:37.605Z,1.12
2019-06-08T12:17:08.914Z,1.10
2019-06-08T12:19:37.762Z,1.20
2019-06-08T12:22:08.756Z,1.07
2019-06-08T12:24:42.053Z,1.22
2019-06-08T12:27:19.033Z,0.95
2019-06-08T12:29:37.621Z,1.20
2019-06-08T12:32:08.871Z,1.25
2019-06-08T12:34:38.355Z,1.15
2019-06-08T12:37:10.251Z,1.25
2019-06-08T12:39:38.743Z,1.10
2019-06-08T12:42:09.532Z,1.50
2019-06-08T12:44:38.434Z,1.52
2019-06-08T12:47:10.699Z,1.40
2019-06-08T12:49:39.930Z,1.02
2019-06-08T12:52:09.888Z,1.02
2019-06-08T12:54:38.040Z,1.20
2019-06-08T12:57:10.167Z,1.40
2019-06-08T12:59:38.532Z,1.42
2019-06-08T13:02:12.888Z,1.50
2019-06-08T13:04:39.397Z,1.42
2019-06-08T13:07:09.734Z,1.27
2019-06-08T13:09:38.508Z,0.90
2019-06-08T13:12:08.043Z,1.15
2019-06-08T13:14:38.540Z,1.05
2019-06-08T13:17:08.661Z,1.20
2019-06-08T13:19:38.691Z,1.10
2019-06-08T13:22:08.988Z,1.20
2019-06-08T13:24:37.933Z,1.20
2019-06-08T13:27:10.364Z,1.45
2019-06-08T13:29:37.703Z,1.07
2019-06-08T13:32:07.814Z,1.00
2019-06-08T13:34:38.660Z,1.00
2019-06-08T13:37:08.351Z,1.55
2019-06-08T13:39:38.811Z,1.22
2019-06-08T13:42:07.825Z,1.27
2019-06-08T13:44:37.802Z,0.90
2019-06-08T13:47:07.727Z,1.35
2019-06-08T13:49:37.704Z,1.10
2019-06-08T13:52:07.941Z,1.42
2019-06-08T13:54:38.165Z,1.45
2019-06-08T13:57:08.555Z,1.30
2019-06-08T13:59:39.000Z,1.10
2019-06-08T14:02:07.584Z,0.80
2019-06-08T14:04:39.418Z,0.70
2019-06-08T14:07:07.761Z,1.17
2019-06-08T14:09:38.273Z,1.00
2019-06-08T14:12:07.722Z,1.20
2019-06-08T14:14:39.639Z,1.30
2019-06-08T14:17:08.508Z,0.88
2019-06-08T14:19:38.544Z,1.00
2019-06-08T14:22:10.432Z,0.90
2019-06-08T14:24:37.833Z,0.80
2019-06-08T14:27:08.256Z,0.90
2019-06-08T14:29:37.169Z,1.00
2019-06-08T14:32:07.851Z,0.98
2019-06-08T14:34:38.475Z,1.00
2019-06-08T14:37:08.488Z,0.90
2019-06-08T14:39:36.685Z,0.88
2019-06-08T14:42:08.310Z,1.10
2019-06-08T14:44:37.918Z,0.78
2019-06-08T14:47:15.112Z,1.05
2019-06-08T14:49:45.372Z,0.82
2019-06-08T14:52:14.046Z,1.00
2019-06-08T14:54:43.698Z,1.15
2019-06-08T14:57:12.301Z,1.35
2019-06-08T14:59:40.907Z,0.98
2019-06-08T15:02:09.640Z,1.00
2019-06-08T15:04:39.989Z,0.82
2019-06-08T15:07:09.544Z,1.00
2019-06-08T15:09:38.497Z,1.07
2019-06-08T15:12:09.384Z,0.90
2019-06-08T15:14:38.423Z,0.72
2019-06-08T15:17:08.577Z,0.75
2019-06-08T15:19:37.334Z,1.10
2019-06-08T15:22:05.996Z,1.20
2019-06-08T15:24:37.984Z,0.98
2019-06-08T15:27:07.891Z,1.47
2019-06-08T15:29:37.821Z,1.22
2019-06-08T15:32:08.095Z,1.20
2019-06-08T15:34:38.264Z,1.47
2019-06-08T15:37:09.213Z,0.90
2019-06-08T15:39:38.755Z,1.02
2019-06-08T15:42:08.338Z,1.60
2019-06-08T15:44:38.312Z,1.10
2019-06-08T15:47:08.185Z,1.60
2019-06-08T15:49:39.087Z,1.17
2019-06-08T15:52:07.762Z,1.40
2019-06-08T15:54:40.465Z,0.82
2019-06-08T15:57:06.665Z,1.57
2019-06-08T15:59:39.032Z,1.55
2019-06-08T16:02:05.557Z,1.30
2019-06-08T16:04:34.160Z,1.07
2019-06-08T16:07:02.794Z,1.02
2019-06-08T16:09:32.099Z,1.90
2019-06-08T16:12:00.821Z,1.25
2019-06-08T16:14:30.930Z,1.17
2019-06-08T16:16:59.583Z,1.37
2019-06-08T16:19:29.375Z,1.37
2019-06-08T16:21:58.453Z,2.15
2019-06-08T16:24:27.764Z,1.40
2019-06-08T16:26:56.281Z,1.05
2019-06-08T16:29:24.862Z,1.25
2019-06-08T16:31:53.404Z,2.10
2019-06-08T16:34:22.033Z,1.30
2019-06-08T16:36:50.697Z,1.30
2019-06-08T16:39:19.321Z,1.20
2019-06-08T16:41:47.881Z,1.17
2019-06-08T16:44:16.592Z,1.40
2019-06-08T16:46:45.061Z,2.17
2019-06-08T16:49:13.669Z,0.85
2019-06-08T16:51:42.426Z,1.20
2019-06-08T16:54:10.982Z,1.30
2019-06-08T16:56:40.283Z,0.93
2019-06-08T16:59:11.657Z,1.30
2019-06-08T17:01:40.139Z,1.40
2019-06-08T17:04:08.868Z,1.25
2019-06-08T17:06:37.424Z,1.30
2019-06-08T17:09:07.740Z,1.20
2019-06-08T17:11:36.419Z,1.52
2019-06-08T17:14:05.826Z,1.50
2019-06-08T17:16:34.520Z,1.45
2019-06-08T17:19:03.190Z,1.12
2019-06-08T17:21:32.232Z,1.90
2019-06-08T17:24:00.824Z,1.20
2019-06-08T17:26:30.520Z,1.27
2019-06-08T17:28:59.326Z,0.93
2019-06-08T17:31:27.869Z,1.32
2019-06-08T17:33:56.417Z,1.37
2019-06-08T17:36:25.014Z,1.30
2019-06-08T17:38:53.554Z,1.52
2019-06-08T17:41:22.174Z,1.62
2019-06-08T17:43:50.762Z,1.40
2019-06-08T17:46:19.300Z,1.57
2019-06-08T17:48:47.768Z,1.62
2019-06-08T17:51:16.281Z,2.02
2019-06-08T17:53:44.871Z,2.75
2019-06-08T17:56:13.400Z,1.62
2019-06-08T17:58:43.372Z,1.62
2019-06-08T18:01:12.197Z,1.22
2019-06-08T18:03:41.443Z,1.27
2019-06-08T18:06:10.965Z,1.70
2019-06-08T18:08:41.969Z,1.82
2019-06-08T18:11:09.999Z,1.25
2019-06-08T18:13:40.781Z,2.35
2019-06-08T18:16:08.901Z,1.72
2019-06-08T18:18:39.287Z,1.90
2019-06-08T18:21:08.184Z,2.08
2019-06-08T18:23:39.980Z,1.30
2019-06-08T18:26:07.725Z,2.25
2019-06-08T18:28:37.133Z,1.52
2019-06-08T18:31:07.513Z,1.65
2019-06-08T18:33:39.889Z,1.80
2019-06-08T18:36:07.624Z,1.82
2019-06-08T18:38:39.760Z,1.75
2019-06-08T18:41:08.218Z,1.45
2019-06-08T18:43:39.603Z,1.70
2019-06-08T18:46:07.345Z,1.40
2019-06-08T18:48:38.531Z,1.77
2019-06-08T18:51:08.318Z,1.83
2019-06-08T18:53:55.904Z,2.10
2019-06-08T18:56:08.175Z,2.22
2019-06-08T18:58:37.731Z,1.90
2019-06-08T19:01:08.461Z,1.67
2019-06-08T19:03:40.313Z,1.75
2019-06-08T19:06:10.171Z,1.67
2019-06-08T19:08:40.922Z,1.43
2019-06-08T19:11:09.783Z,1.50
2019-06-08T19:13:39.245Z,1.67
2019-06-08T19:16:07.962Z,1.63
2019-06-08T19:18:40.675Z,2.73
2019-06-08T19:21:07.740Z,6.20
2019-06-08T19:23:38.987Z,7.57
2019-06-08T19:26:07.732Z,10.17
2019-06-08T19:28:40.922Z,12.90
2019-06-08T19:31:09.862Z,14.87
2019-06-08T19:33:37.277Z,14.47
2019-06-08T19:36:07.760Z,16.47
2019-06-08T19:38:38.465Z,14.63
2019-06-08T19:41:08.124Z,14.80
2019-06-08T19:43:39.956Z,11.40
2019-06-08T19:46:07.457Z,11.97
2019-06-08T19:48:38.612Z,10.43
2019-06-08T19:51:07.656Z,10.60
2019-06-08T19:53:41.615Z,10.17
2019-06-08T19:56:07.857Z,11.77
2019-06-08T19:58:50.582Z,13.77
2019-06-08T20:01:07.429Z,14.33
2019-06-08T20:03:37.855Z,13.27
2019-06-08T20:06:06.702Z,13.03
2019-06-08T20:08:37.393Z,11.77
2019-06-08T20:11:08.106Z,10.60
2019-06-08T20:13:37.547Z,10.40
2019-06-08T20:16:08.363Z,9.10
2019-06-08T20:18:37.541Z,9.23
2019-06-08T20:21:10.021Z,10.23
2019-06-08T20:23:38.287Z,12.27
2019-06-08T20:26:08.368Z,11.73
2019-06-08T20:28:37.392Z,13.67
2019-06-08T20:31:07.462Z,13.43
2019-06-08T20:33:37.925Z,14.33
2019-06-08T20:36:08.323Z,14.80
2019-06-08T20:38:41.488Z,14.50
2019-06-08T20:41:07.659Z,15.10
2019-06-08T20:43:38.187Z,13.27
2019-06-08T20:46:08.167Z,12.50
2019-06-08T20:48:37.755Z,12.07
2019-06-08T20:51:07.830Z,12.17
2019-06-08T20:53:38.720Z,14.40
2019-06-08T20:56:07.951Z,11.10
2019-06-08T20:58:37.217Z,9.43
2019-06-08T21:01:07.356Z,8.07
2019-06-08T21:03:36.112Z,8.17
2019-06-08T21:06:04.796Z,7.03
2019-06-08T21:08:33.273Z,5.90
2019-06-08T21:11:01.834Z,6.47
2019-06-08T21:13:30.645Z,5.43
2019-06-08T21:16:00.675Z,5.63
2019-06-08T21:18:29.607Z,5.90
2019-06-08T21:20:58.256Z,6.70
2019-06-08T21:23:28.135Z,7.97
2019-06-08T21:26:00.082Z,6.30
2019-06-08T21:28:28.093Z,5.57
2019-06-08T21:31:01.930Z,3.60
2019-06-08T21:33:27.504Z,3.90
2019-06-08T21:36:03.790Z,3.63
2019-06-08T21:38:28.213Z,4.47
2019-06-08T21:41:00.873Z,4.40
2019-06-08T21:43:27.905Z,4.43
2019-06-08T21:45:59.451Z,7.33
2019-06-08T21:48:29.457Z,7.03
2019-06-08T21:51:01.381Z,4.63
2019-06-08T21:53:28.363Z,4.30
2019-06-08T21:55:58.312Z,3.50
2019-06-08T21:58:27.066Z,3.63
2019-06-08T22:00:59.407Z,3.53
2019-06-08T22:03:28.159Z,3.83
2019-06-08T22:05:58.869Z,3.93
2019-06-08T22:08:27.385Z,3.33
2019-06-08T22:10:58.973Z,3.60
2019-06-08T22:13:28.251Z,4.27
2019-06-08T22:15:59.825Z,3.93
2019-06-08T22:18:27.363Z,4.43
2019-06-08T22:20:59.426Z,4.57
2019-06-08T22:23:26.382Z,4.80
2019-06-08T22:28:52.550Z,4.97
2019-06-08T22:31:23.226Z,4.83
2019-06-08T22:33:53.034Z,3.93
2019-06-08T22:36:22.177Z,4.80
2019-06-08T22:38:50.653Z,5.53
2019-06-08T22:41:19.130Z,5.67
2019-06-08T22:43:48.204Z,6.60
2019-06-08T22:46:17.866Z,6.60
2019-06-08T22:48:47.781Z,6.70
2019-06-08T22:51:18.740Z,7.67
2019-06-08T22:53:47.802Z,7.17
2019-06-08T22:56:18.379Z,8.00
2019-06-08T22:58:47.981Z,8.03
2019-06-08T23:01:18.388Z,8.33
2019-06-08T23:03:47.654Z,9.27
2019-06-08T23:06:17.660Z,9.70
2019-06-08T23:08:48.054Z,9.90
2019-06-08T23:11:17.988Z,9.53
2019-06-08T23:13:47.166Z,9.23
2019-06-08T23:16:17.996Z,9.07
2019-06-08T23:18:47.782Z,9.67
2019-06-08T23:21:18.029Z,9.97
2019-06-08T23:23:47.760Z,10.23
2019-06-08T23:26:18.304Z,10.67
2019-06-08T23:28:47.314Z,10.73
2019-06-08T23:31:24.291Z,11.93
2019-06-08T23:33:48.314Z,10.97
2019-06-08T23:36:44.957Z,10.40
2019-06-08T23:38:48.101Z,9.87
2019-06-08T23:41:17.744Z,9.03
2019-06-08T23:43:47.897Z,9.00
2019-06-08T23:46:17.905Z,8.93
2019-06-08T23:48:48.137Z,8.90
2019-06-08T23:51:17.905Z,8.23
2019-06-08T23:53:47.805Z,8.07
2019-06-08T23:56:18.124Z,8.10
2019-06-08T23:58:47.994Z,9.97
